createdAt,value
2023-01-29T00:00:47.181Z,96744.19
2023-01-29T00:01:48.886Z,96730.84
2023-01-29T00:02:50.594Z,96742.88
2023-01-29T00:03:52.524Z,96738.31
2023-01-29T00:04:58.702Z,96741.59
2023-01-29T00:06:01.161Z,96736.31
2023-01-29T00:07:02.777Z,96745.69
2023-01-29T00:08:04.625Z,96736.44
2023-01-29T00:09:06.362Z,96741.75
2023-01-29T00:10:08.742Z,96738.66
2023-01-29T00:11:10.556Z,96739.59
2023-01-29T00:12:12.259Z,96742.78
2023-01-29T00:13:14.119Z,96743.03
2023-01-29T00:14:15.813Z,96742.19
2023-01-29T00:15:17.992Z,96751.53
2023-01-29T00:16:19.798Z,96754.34
2023-01-29T00:17:21.563Z,96754.72
2023-01-29T00:18:23.852Z,96753.69
2023-01-29T00:19:25.514Z,96757.03
2023-01-29T00:20:27.165Z,96750.84
2023-01-29T00:21:30.963Z,96750.50
2023-01-29T00:22:32.587Z,96756.84
2023-01-29T00:23:34.159Z,96753.69
2023-01-29T00:24:35.985Z,96750.03
2023-01-29T00:25:37.583Z,96751.09
2023-01-29T00:26:40.107Z,96756.94
2023-01-29T00:27:41.758Z,96750.19
2023-01-29T00:28:43.900Z,96747.50
2023-01-29T00:30:05.476Z,96745.72
2023-01-29T00:31:18.720Z,96745.13
2023-01-29T00:32:20.527Z,96748.97
2023-01-29T00:33:22.204Z,96741.53
2023-01-29T00:34:23.919Z,96750.41
2023-01-29T00:35:25.547Z,96746.56
2023-01-29T00:36:27.544Z,96748.53
2023-01-29T00:37:29.216Z,96743.19
2023-01-29T00:38:30.930Z,96749.59
2023-01-29T00:39:47.412Z,96746.56
2023-01-29T00:41:08.725Z,96756.97
2023-01-29T00:42:29.143Z,96755.81
2023-01-29T00:43:49.335Z,96758.41
2023-01-29T00:45:00.003Z,96756.41
2023-01-29T00:46:01.756Z,96764.44
2023-01-29T00:47:04.151Z,96764.69
2023-01-29T00:48:06.361Z,96754.41
2023-01-29T00:49:08.540Z,96756.75
2023-01-29T00:50:11.863Z,96764.00
2023-01-29T00:51:13.531Z,96764.09
2023-01-29T00:52:24.179Z,96773.47
2023-01-29T00:53:25.980Z,96766.19
2023-01-29T00:54:27.589Z,96767.59
2023-01-29T00:55:29.231Z,96772.53
2023-01-29T00:56:30.899Z,96756.41
2023-01-29T00:57:34.256Z,96756.63
2023-01-29T00:58:35.913Z,96764.22
2023-01-29T00:59:37.603Z,96753.50
2023-01-29T01:00:39.377Z,96757.47
2023-01-29T01:01:59.543Z,96754.91
2023-01-29T01:03:07.731Z,96745.78
2023-01-29T01:04:11.567Z,96748.34
2023-01-29T01:05:18.129Z,96749.75
2023-01-29T01:06:19.987Z,96748.47
2023-01-29T01:07:21.642Z,96755.97
2023-01-29T01:08:41.648Z,96758.19
2023-01-29T01:10:02.131Z,96757.38
2023-01-29T01:11:07.289Z,96763.56
2023-01-29T01:12:08.900Z,96763.31
2023-01-29T01:13:10.455Z,96766.34
2023-01-29T01:14:12.101Z,96766.00
2023-01-29T01:15:13.980Z,96765.41
2023-01-29T01:16:18.643Z,96763.88
2023-01-29T01:17:20.353Z,96765.28
2023-01-29T01:18:22.470Z,96758.50
2023-01-29T01:19:24.042Z,96764.84
2023-01-29T01:20:27.529Z,96766.94
2023-01-29T01:21:29.292Z,96774.66
2023-01-29T01:22:31.879Z,96774.75
2023-01-29T01:23:33.593Z,96761.19
2023-01-29T01:24:35.715Z,96765.50
2023-01-29T01:25:37.951Z,96777.22
2023-01-29T01:26:39.783Z,96772.19
2023-01-29T01:27:41.697Z,96767.75
2023-01-29T01:28:43.290Z,96764.59
2023-01-29T01:29:47.764Z,96767.41
2023-01-29T01:30:49.362Z,96770.41
2023-01-29T01:31:53.577Z,96776.16
2023-01-29T01:32:55.224Z,96776.03
2023-01-29T01:33:57.060Z,96769.00
2023-01-29T01:35:00.350Z,96765.28
2023-01-29T01:36:02.395Z,96771.94
2023-01-29T01:37:04.313Z,96769.38
2023-01-29T01:38:05.927Z,96760.38
2023-01-29T01:39:07.569Z,96764.91
2023-01-29T01:40:18.296Z,96762.25
2023-01-29T01:41:22.492Z,96756.19
2023-01-29T01:42:30.170Z,96756.16
2023-01-29T01:44:00.144Z,96755.78
2023-01-29T01:45:06.335Z,96756.38
2023-01-29T01:46:08.077Z,96752.31
2023-01-29T01:47:09.700Z,96758.19
2023-01-29T01:48:18.008Z,96748.13
2023-01-29T01:49:21.663Z,96749.53
2023-01-29T01:50:33.726Z,96749.38
2023-01-29T01:51:39.753Z,96754.97
2023-01-29T01:52:45.425Z,96755.44
2023-01-29T01:53:54.202Z,96751.84
2023-01-29T01:54:55.768Z,96757.22
2023-01-29T01:56:03.779Z,96755.59
2023-01-29T01:57:16.000Z,96749.53
2023-01-29T01:58:21.580Z,96740.88
2023-01-29T01:59:24.078Z,96743.56
2023-01-29T02:00:26.257Z,96741.72
2023-01-29T02:01:28.591Z,96743.44
2023-01-29T02:02:48.771Z,96750.06
2023-01-29T02:03:59.212Z,96754.53
2023-01-29T02:05:19.664Z,96748.78
2023-01-29T02:06:39.921Z,96754.84
2023-01-29T02:08:05.208Z,96753.03
2023-01-29T02:09:31.895Z,96751.03
2023-01-29T02:10:40.901Z,96753.22
2023-01-29T02:11:42.447Z,96753.03
2023-01-29T02:12:45.283Z,96743.78
2023-01-29T02:13:46.878Z,96747.22
2023-01-29T02:14:48.733Z,96748.47
2023-01-29T02:15:50.373Z,96753.69
2023-01-29T02:16:52.012Z,96754.53
2023-01-29T02:17:53.609Z,96755.91
2023-01-29T02:18:55.362Z,96748.47
2023-01-29T02:20:09.326Z,96744.25
2023-01-29T02:21:25.239Z,96741.84
2023-01-29T02:22:40.662Z,96742.03
2023-01-29T02:24:20.432Z,96739.81
2023-01-29T02:25:37.122Z,96748.78
2023-01-29T02:27:04.761Z,96744.47
2023-01-29T02:28:24.269Z,96742.47
2023-01-29T02:29:35.357Z,96746.47
2023-01-29T02:30:41.872Z,96744.84
2023-01-29T02:31:48.195Z,96746.03
2023-01-29T02:33:13.043Z,96747.75
2023-01-29T02:34:17.580Z,96742.97
2023-01-29T02:35:30.558Z,96743.50
2023-01-29T02:36:46.927Z,96735.97
2023-01-29T02:38:13.770Z,96736.97
2023-01-29T02:39:23.136Z,96740.38
2023-01-29T02:40:45.730Z,96731.16
2023-01-29T02:42:02.724Z,96738.63
2023-01-29T02:43:09.756Z,96741.16
2023-01-29T02:44:38.930Z,96737.78
2023-01-29T02:45:48.343Z,96734.66
2023-01-29T02:47:04.203Z,96743.19
2023-01-29T02:48:06.056Z,96737.44
2023-01-29T02:49:26.117Z,96737.47
2023-01-29T02:50:47.738Z,96744.16
2023-01-29T02:51:58.979Z,96737.22
2023-01-29T02:53:12.078Z,96737.47
2023-01-29T02:54:24.991Z,96740.41
2023-01-29T02:55:46.683Z,96735.59
2023-01-29T02:56:58.977Z,96740.66
2023-01-29T02:58:08.865Z,96739.09
2023-01-29T02:59:17.199Z,96738.28
2023-01-29T03:00:21.888Z,96742.16
2023-01-29T03:01:33.326Z,96743.09
2023-01-29T03:02:34.913Z,96734.47
2023-01-29T03:03:41.015Z,96747.50
2023-01-29T03:04:47.529Z,96744.97
2023-01-29T03:06:08.079Z,96739.34
2023-01-29T03:07:35.799Z,96742.59
2023-01-29T03:08:45.599Z,96741.09
2023-01-29T03:09:51.079Z,96737.31
2023-01-29T03:10:57.859Z,96741.97
2023-01-29T03:12:20.014Z,96746.22
2023-01-29T03:13:28.784Z,96748.53
2023-01-29T03:14:55.449Z,96749.81
2023-01-29T03:16:04.136Z,96737.69
2023-01-29T03:17:15.189Z,96744.97
2023-01-29T03:18:27.531Z,96746.38
2023-01-29T03:19:43.992Z,96745.03
2023-01-29T03:20:59.113Z,96741.41
2023-01-29T03:22:04.141Z,96732.22
2023-01-29T03:23:13.320Z,96733.34
2023-01-29T03:24:37.659Z,96732.44
2023-01-29T03:25:59.893Z,96730.34
2023-01-29T03:27:27.097Z,96727.53
2023-01-29T03:28:49.157Z,96740.28
2023-01-29T03:30:10.579Z,96729.09
2023-01-29T03:31:45.001Z,96731.53
2023-01-29T03:32:47.612Z,96733.97
2023-01-29T03:33:52.414Z,96731.28
2023-01-29T03:34:58.360Z,96733.72
2023-01-29T03:36:07.416Z,96738.66
2023-01-29T03:37:19.349Z,96739.91
2023-01-29T03:38:21.153Z,96732.06
2023-01-29T03:39:28.383Z,96736.41
2023-01-29T03:40:50.660Z,96736.53
2023-01-29T03:41:58.117Z,96733.03
2023-01-29T03:43:22.376Z,96724.84
2023-01-29T03:44:37.156Z,96725.91
2023-01-29T03:46:00.740Z,96729.31
2023-01-29T03:47:34.705Z,96741.09
2023-01-29T03:48:40.312Z,96738.25
2023-01-29T03:50:02.357Z,96736.78
2023-01-29T03:51:25.759Z,96729.41
2023-01-29T03:52:56.334Z,96728.13
2023-01-29T03:54:08.300Z,96719.97
2023-01-29T03:55:15.851Z,96722.53
2023-01-29T03:56:32.945Z,96723.03
2023-01-29T03:57:41.737Z,96719.97
2023-01-29T03:59:01.431Z,96719.72
2023-01-29T04:00:32.076Z,96728.72
2023-01-29T04:01:42.250Z,96724.41
2023-01-29T04:02:52.972Z,96721.50
2023-01-29T04:03:54.922Z,96726.41
2023-01-29T04:05:01.591Z,96720.19
2023-01-29T04:06:29.608Z,96723.09
2023-01-29T04:07:41.981Z,96725.28
2023-01-29T04:08:48.633Z,96725.22
2023-01-29T04:10:13.045Z,96722.75
2023-01-29T04:11:17.756Z,96720.88
2023-01-29T04:12:24.302Z,96723.34
2023-01-29T04:13:26.943Z,96720.53
2023-01-29T04:14:28.499Z,96726.41
2023-01-29T04:15:33.893Z,96727.34
2023-01-29T04:16:39.233Z,96720.09
2023-01-29T04:17:52.666Z,96718.72
2023-01-29T04:19:17.164Z,96723.81
2023-01-29T04:20:20.646Z,96725.34
2023-01-29T04:21:22.392Z,96731.41
2023-01-29T04:22:34.613Z,96727.44
2023-01-29T04:23:36.239Z,96726.88
2023-01-29T04:24:38.070Z,96731.88
2023-01-29T04:25:45.906Z,96730.00
2023-01-29T04:27:29.300Z,96732.44
2023-01-29T04:29:17.783Z,96731.78
2023-01-29T04:30:24.039Z,96732.97
2023-01-29T04:31:30.896Z,96726.78
2023-01-29T04:32:42.220Z,96725.47
2023-01-29T04:34:24.561Z,96728.88
2023-01-29T04:35:26.068Z,96723.22
2023-01-29T04:36:36.933Z,96720.75
2023-01-29T04:37:53.611Z,96722.16
2023-01-29T04:39:21.204Z,96721.94
2023-01-29T04:40:46.924Z,96724.31
2023-01-29T04:42:03.503Z,96716.94
2023-01-29T04:43:13.154Z,96716.94
2023-01-29T04:44:32.705Z,96723.81
2023-01-29T04:46:09.588Z,96718.34
2023-01-29T04:47:24.701Z,96719.63
2023-01-29T04:48:26.406Z,96712.97
2023-01-29T04:49:34.424Z,96719.63
2023-01-29T04:50:44.722Z,96726.41
2023-01-29T04:51:58.343Z,96723.47
2023-01-29T04:53:14.894Z,96714.25
2023-01-29T04:54:30.025Z,96723.47
2023-01-29T04:55:47.770Z,96720.81
2023-01-29T04:56:52.486Z,96719.16
2023-01-29T04:58:15.351Z,96713.09
2023-01-29T04:59:53.188Z,96717.84
2023-01-29T05:00:54.901Z,96727.09
2023-01-29T05:01:56.793Z,96729.69
2023-01-29T05:02:59.606Z,96731.78
2023-01-29T05:04:09.198Z,96730.97
2023-01-29T05:05:12.865Z,96731.66
2023-01-29T05:06:16.146Z,96732.47
2023-01-29T05:07:18.310Z,96731.78
2023-01-29T05:08:23.362Z,96741.94
2023-01-29T05:09:25.549Z,96737.50
2023-01-29T05:10:27.576Z,96734.25
2023-01-29T05:11:31.061Z,96742.88
2023-01-29T05:12:33.621Z,96743.25
2023-01-29T05:13:39.395Z,96740.44
2023-01-29T05:14:44.171Z,96735.66
2023-01-29T05:15:52.919Z,96750.59
2023-01-29T05:16:54.390Z,96744.53
2023-01-29T05:18:03.008Z,96744.31
2023-01-29T05:19:04.595Z,96748.34
2023-01-29T05:20:07.180Z,96743.81
2023-01-29T05:21:08.838Z,96750.44
2023-01-29T05:22:12.599Z,96752.50
2023-01-29T05:23:19.524Z,96745.66
2023-01-29T05:24:23.008Z,96751.84
2023-01-29T05:25:27.573Z,96754.91
2023-01-29T05:26:47.791Z,96750.44
2023-01-29T05:28:14.059Z,96749.53
2023-01-29T05:29:15.701Z,96765.41
2023-01-29T05:30:17.729Z,96762.50
2023-01-29T05:31:19.569Z,96765.19
2023-01-29T05:32:21.235Z,96773.56
2023-01-29T05:33:30.768Z,96763.09
2023-01-29T05:34:32.366Z,96768.56
2023-01-29T05:35:34.817Z,96760.41
2023-01-29T05:36:36.465Z,96761.91
2023-01-29T05:37:38.128Z,96763.47
2023-01-29T05:38:39.751Z,96758.09
2023-01-29T05:39:41.374Z,96755.03
2023-01-29T05:40:43.416Z,96758.88
2023-01-29T05:41:45.032Z,96762.50
2023-01-29T05:42:46.682Z,96759.69
2023-01-29T05:43:48.401Z,96756.78
2023-01-29T05:44:50.064Z,96765.28
2023-01-29T05:45:53.673Z,96760.88
2023-01-29T05:46:55.328Z,96769.63
2023-01-29T05:47:58.297Z,96760.72
2023-01-29T05:48:59.986Z,96763.09
2023-01-29T05:50:01.628Z,96758.41
2023-01-29T05:51:04.308Z,96762.63
2023-01-29T05:52:05.896Z,96765.66
2023-01-29T05:53:07.664Z,96761.34
2023-01-29T05:54:12.376Z,96760.88
2023-01-29T05:55:13.999Z,96758.19
2023-01-29T05:56:15.580Z,96742.16
2023-01-29T05:57:17.174Z,96746.84
2023-01-29T05:58:19.821Z,96754.06
2023-01-29T05:59:21.379Z,96743.19
2023-01-29T06:00:23.467Z,96745.81
2023-01-29T06:01:25.787Z,96752.34
2023-01-29T06:02:30.426Z,96753.84
2023-01-29T06:03:31.997Z,96753.50
2023-01-29T06:04:33.650Z,96754.78
2023-01-29T06:05:38.189Z,96752.66
2023-01-29T06:06:39.957Z,96754.28
2023-01-29T06:07:45.239Z,96752.00
2023-01-29T06:08:46.872Z,96756.41
2023-01-29T06:09:48.650Z,96760.00
2023-01-29T06:10:50.252Z,96753.25
2023-01-29T06:11:51.822Z,96750.91
2023-01-29T06:12:53.411Z,96747.13
2023-01-29T06:13:55.043Z,96750.44
2023-01-29T06:14:56.685Z,96744.38
2023-01-29T06:15:58.324Z,96745.03
2023-01-29T06:17:00.010Z,96743.50
2023-01-29T06:18:01.631Z,96748.03
2023-01-29T06:19:03.255Z,96750.41
2023-01-29T06:20:05.841Z,96744.53
2023-01-29T06:21:09.888Z,96739.16
2023-01-29T06:22:11.571Z,96746.31
2023-01-29T06:23:13.158Z,96740.50
2023-01-29T06:24:14.909Z,96745.91
2023-01-29T06:25:16.677Z,96748.25
2023-01-29T06:26:18.581Z,96746.38
2023-01-29T06:27:20.649Z,96756.56
2023-01-29T06:28:22.520Z,96758.88
2023-01-29T06:29:24.233Z,96761.34
2023-01-29T06:30:25.844Z,96761.34
2023-01-29T06:31:43.003Z,96757.59
2023-01-29T06:32:44.718Z,96760.66
2023-01-29T06:33:46.341Z,96758.66
2023-01-29T06:34:49.684Z,96750.50
2023-01-29T06:36:02.411Z,96764.84
2023-01-29T06:37:04.412Z,96754.69
2023-01-29T06:38:06.540Z,96763.78
2023-01-29T06:39:08.569Z,96758.28
2023-01-29T06:40:11.141Z,96760.72
2023-01-29T06:41:14.630Z,96759.81
2023-01-29T06:42:16.277Z,96767.50
2023-01-29T06:43:17.991Z,96753.63
2023-01-29T06:44:19.599Z,96755.25
2023-01-29T06:45:21.323Z,96760.28
2023-01-29T06:46:22.985Z,96747.09
2023-01-29T06:47:24.928Z,96748.47
2023-01-29T06:48:26.489Z,96740.66
2023-01-29T06:49:28.090Z,96740.59
2023-01-29T06:50:29.721Z,96744.44
2023-01-29T06:51:31.303Z,96735.50
2023-01-29T06:52:32.914Z,96749.97
2023-01-29T06:53:35.702Z,96740.88
2023-01-29T06:54:37.348Z,96745.19
2023-01-29T06:55:39.108Z,96738.50
2023-01-29T06:56:40.683Z,96742.22
2023-01-29T06:57:42.278Z,96743.50
2023-01-29T06:58:43.945Z,96740.34
2023-01-29T06:59:45.569Z,96740.13
2023-01-29T07:00:47.269Z,96741.31
2023-01-29T07:01:49.017Z,96742.16
2023-01-29T07:02:50.798Z,96736.41
2023-01-29T07:03:52.653Z,96731.63
2023-01-29T07:04:54.248Z,96729.03
2023-01-29T07:05:55.867Z,96725.50
2023-01-29T07:06:59.547Z,96727.88
2023-01-29T07:08:01.147Z,96730.63
2023-01-29T07:09:05.810Z,96728.41
2023-01-29T07:10:08.607Z,96737.06
2023-01-29T07:11:10.245Z,96735.88
2023-01-29T07:12:11.942Z,96740.13
2023-01-29T07:13:13.522Z,96744.38
2023-01-29T07:14:15.440Z,96739.66
2023-01-29T07:15:20.299Z,96745.41
2023-01-29T07:16:21.965Z,96749.56
2023-01-29T07:17:23.655Z,96739.53
2023-01-29T07:18:25.326Z,96749.00
2023-01-29T07:19:27.006Z,96745.25
2023-01-29T07:20:30.158Z,96748.88
2023-01-29T07:21:31.801Z,96739.09
2023-01-29T07:22:33.390Z,96739.66
2023-01-29T07:23:35.488Z,96736.78
2023-01-29T07:24:37.104Z,96734.66
2023-01-29T07:25:39.699Z,96726.63
2023-01-29T07:26:41.198Z,96733.72
2023-01-29T07:27:42.737Z,96729.53
2023-01-29T07:28:44.309Z,96738.63
2023-01-29T07:29:45.910Z,96737.06
2023-01-29T07:30:47.708Z,96733.91
2023-01-29T07:31:49.436Z,96734.63
2023-01-29T07:32:51.084Z,96738.72
2023-01-29T07:33:52.660Z,96734.66
2023-01-29T07:34:54.267Z,96733.56
2023-01-29T07:35:56.031Z,96739.59
2023-01-29T07:36:57.631Z,96738.34
2023-01-29T07:37:59.229Z,96730.56
2023-01-29T07:39:00.840Z,96737.28
2023-01-29T07:40:02.438Z,96737.66
2023-01-29T07:41:04.388Z,96736.03
2023-01-29T07:42:06.011Z,96738.63
2023-01-29T07:43:08.009Z,96734.75
2023-01-29T07:44:09.651Z,96741.97
2023-01-29T07:45:12.139Z,96737.84
2023-01-29T07:46:13.950Z,96742.06
2023-01-29T07:47:17.207Z,96732.28
2023-01-29T07:48:19.264Z,96734.59
2023-01-29T07:49:20.877Z,96734.59
2023-01-29T07:50:23.946Z,96734.13
2023-01-29T07:51:25.586Z,96737.66
2023-01-29T07:52:29.781Z,96729.50
2023-01-29T07:53:31.524Z,96719.31
2023-01-29T07:54:33.105Z,96722.69
2023-01-29T07:55:34.704Z,96726.25
2023-01-29T07:56:36.311Z,96722.53
2023-01-29T07:57:37.926Z,96731.72
2023-01-29T07:58:39.506Z,96725.03
2023-01-29T07:59:41.155Z,96732.09
2023-01-29T08:00:43.717Z,96730.19
2023-01-29T08:01:45.319Z,96728.06
2023-01-29T08:02:46.931Z,96737.69
2023-01-29T08:03:50.591Z,96736.47
2023-01-29T08:04:53.019Z,96738.47
2023-01-29T08:05:54.663Z,96738.75
2023-01-29T08:06:56.232Z,96738.38
2023-01-29T08:08:06.622Z,96740.03
2023-01-29T08:09:08.847Z,96746.94
2023-01-29T08:10:11.140Z,96735.25
2023-01-29T08:11:13.062Z,96750.63
2023-01-29T08:12:14.753Z,96744.13
2023-01-29T08:13:16.308Z,96739.09
2023-01-29T08:14:17.936Z,96743.97
2023-01-29T08:15:19.583Z,96745.69
2023-01-29T08:16:21.193Z,96741.56
2023-01-29T08:17:23.062Z,96735.88
2023-01-29T08:18:24.729Z,96737.16
2023-01-29T08:19:26.336Z,96734.03
2023-01-29T08:20:28.497Z,96742.66
2023-01-29T08:21:30.122Z,96745.44
2023-01-29T08:22:31.797Z,96746.19
2023-01-29T08:23:33.473Z,96743.50
2023-01-29T08:24:47.657Z,96750.38
2023-01-29T08:25:55.948Z,96752.13
2023-01-29T08:26:57.580Z,96746.91
2023-01-29T08:28:00.198Z,96753.31
2023-01-29T08:29:01.783Z,96760.78
2023-01-29T08:30:04.625Z,96756.78
2023-01-29T08:31:13.785Z,96751.31
2023-01-29T08:32:15.349Z,96759.00
2023-01-29T08:33:19.478Z,96759.34
2023-01-29T08:34:23.252Z,96770.22
2023-01-29T08:35:25.549Z,96762.50
2023-01-29T08:36:27.144Z,96773.38
2023-01-29T08:37:28.730Z,96764.16
2023-01-29T08:38:30.294Z,96763.22
2023-01-29T08:39:33.673Z,96767.88
2023-01-29T08:40:36.070Z,96769.88
2023-01-29T08:41:37.647Z,96776.06
2023-01-29T08:42:41.305Z,96779.56
2023-01-29T08:43:42.890Z,96774.75
2023-01-29T08:44:44.496Z,96781.84
2023-01-29T08:45:46.214Z,96773.91
2023-01-29T08:46:47.795Z,96782.75
2023-01-29T08:47:50.151Z,96786.84
2023-01-29T08:48:51.829Z,96791.38
2023-01-29T08:49:53.453Z,96786.69
2023-01-29T08:50:57.667Z,96784.59
2023-01-29T08:52:00.453Z,96784.44
2023-01-29T08:53:07.799Z,96785.47
2023-01-29T08:54:09.427Z,96787.25
2023-01-29T08:55:11.615Z,96791.91
2023-01-29T08:56:13.225Z,96787.94
2023-01-29T08:57:14.825Z,96791.19
2023-01-29T08:58:16.388Z,96789.69
2023-01-29T08:59:18.075Z,96791.44
2023-01-29T09:00:20.070Z,96793.06
2023-01-29T09:01:21.729Z,96784.78
2023-01-29T09:02:23.392Z,96790.53
2023-01-29T09:03:24.982Z,96781.25
2023-01-29T09:04:26.571Z,96789.94
2023-01-29T09:05:28.780Z,96785.59
2023-01-29T09:06:30.354Z,96792.28
2023-01-29T09:07:32.072Z,96784.81
2023-01-29T09:08:33.643Z,96792.41
2023-01-29T09:09:35.238Z,96788.69
2023-01-29T09:10:36.955Z,96785.16
2023-01-29T09:11:40.534Z,96788.31
2023-01-29T09:12:42.150Z,96793.13
2023-01-29T09:13:43.842Z,96792.41
2023-01-29T09:14:45.457Z,96791.41
2023-01-29T09:15:47.059Z,96795.78
2023-01-29T09:16:48.709Z,96806.91
2023-01-29T09:17:50.336Z,96799.31
2023-01-29T09:18:53.136Z,96805.25
2023-01-29T09:19:54.761Z,96803.16
2023-01-29T09:20:57.119Z,96802.44
2023-01-29T09:21:58.873Z,96799.13
2023-01-29T09:23:07.697Z,96802.97
2023-01-29T09:24:09.342Z,96808.13
2023-01-29T09:25:11.137Z,96800.47
2023-01-29T09:26:12.777Z,96798.94
2023-01-29T09:27:14.474Z,96797.50
2023-01-29T09:28:17.657Z,96801.97
2023-01-29T09:29:19.206Z,96799.13
2023-01-29T09:30:21.002Z,96800.16
2023-01-29T09:31:22.691Z,96799.94
2023-01-29T09:32:52.091Z,96806.19
2023-01-29T09:33:46.103Z,96807.84
2023-01-29T09:34:47.667Z,96809.47
2023-01-29T09:35:49.356Z,96808.56
2023-01-29T09:36:52.311Z,96812.50
2023-01-29T09:37:54.049Z,96810.78
2023-01-29T09:38:55.683Z,96813.47
2023-01-29T09:39:57.255Z,96820.94
2023-01-29T09:41:06.245Z,96827.03
2023-01-29T09:42:27.824Z,96823.53
2023-01-29T09:43:39.367Z,96821.44
2023-01-29T09:45:04.827Z,96822.50
2023-01-29T09:46:15.844Z,96823.66
2023-01-29T09:47:17.999Z,96824.13
2023-01-29T09:48:20.481Z,96831.38
2023-01-29T09:49:27.880Z,96825.09
2023-01-29T09:50:41.003Z,96833.72
2023-01-29T09:51:46.759Z,96823.81
2023-01-29T09:52:59.145Z,96818.31
2023-01-29T09:54:15.640Z,96828.91
2023-01-29T09:55:32.572Z,96821.09
2023-01-29T09:56:35.154Z,96814.53
2023-01-29T09:57:50.394Z,96823.53
2023-01-29T09:58:52.035Z,96808.44
2023-01-29T09:59:54.464Z,96820.03
2023-01-29T10:00:59.067Z,96818.19
2023-01-29T10:02:11.162Z,96827.16
2023-01-29T10:03:12.725Z,96817.66
2023-01-29T10:04:29.171Z,96822.44
2023-01-29T10:05:58.689Z,96818.72
2023-01-29T10:07:12.132Z,96815.13
2023-01-29T10:08:13.691Z,96811.09
2023-01-29T10:09:46.459Z,96809.88
2023-01-29T10:10:49.250Z,96812.78
2023-01-29T10:11:59.949Z,96812.59
2023-01-29T10:13:12.191Z,96816.31
2023-01-29T10:14:18.320Z,96812.50
2023-01-29T10:15:53.666Z,96815.94
2023-01-29T10:17:00.903Z,96816.34
2023-01-29T10:18:27.332Z,96816.84
2023-01-29T10:19:43.828Z,96820.81
2023-01-29T10:21:01.235Z,96816.13
2023-01-29T10:22:08.870Z,96818.78
2023-01-29T10:23:20.795Z,96819.25
2023-01-29T10:24:29.055Z,96814.91
2023-01-29T10:25:33.829Z,96815.88
2023-01-29T10:26:37.872Z,96810.84
2023-01-29T10:27:41.688Z,96807.50
2023-01-29T10:28:46.504Z,96802.88
2023-01-29T10:29:51.014Z,96805.56
2023-01-29T10:30:58.539Z,96801.44
2023-01-29T10:32:06.039Z,96805.94
2023-01-29T10:33:12.895Z,96800.88
2023-01-29T10:34:40.477Z,96805.16
2023-01-29T10:35:50.272Z,96799.19
2023-01-29T10:36:51.906Z,96802.41
2023-01-29T10:37:54.529Z,96801.41
2023-01-29T10:38:56.052Z,96793.41
2023-01-29T10:39:59.978Z,96795.47
2023-01-29T10:41:01.506Z,96798.31
2023-01-29T10:42:15.382Z,96791.94
2023-01-29T10:43:29.884Z,96792.78
2023-01-29T10:44:34.247Z,96787.38
2023-01-29T10:46:08.117Z,96789.38
2023-01-29T10:47:33.438Z,96788.66
2023-01-29T10:48:47.144Z,96787.06
2023-01-29T10:50:04.509Z,96787.59
2023-01-29T10:51:41.455Z,96793.56
2023-01-29T10:53:01.260Z,96790.97
2023-01-29T10:54:33.421Z,96791.03
2023-01-29T10:55:56.060Z,96793.66
2023-01-29T10:56:57.618Z,96788.31
2023-01-29T10:58:07.440Z,96788.56
2023-01-29T10:59:18.029Z,96787.03
2023-01-29T11:00:22.914Z,96782.25
2023-01-29T11:01:24.663Z,96781.31
2023-01-29T11:02:26.407Z,96775.31
2023-01-29T11:03:31.120Z,96774.50
2023-01-29T11:04:33.796Z,96768.91
2023-01-29T11:05:36.919Z,96769.91
2023-01-29T11:06:38.832Z,96765.97
2023-01-29T11:07:40.509Z,96764.72
2023-01-29T11:08:59.380Z,96768.19
2023-01-29T11:10:08.326Z,96756.88
2023-01-29T11:11:17.879Z,96759.59
2023-01-29T11:12:23.721Z,96763.72
2023-01-29T11:13:31.472Z,96762.00
2023-01-29T11:14:53.242Z,96762.25
2023-01-29T11:15:54.885Z,96760.22
2023-01-29T11:16:56.485Z,96763.00
2023-01-29T11:18:05.736Z,96758.31
2023-01-29T11:19:07.347Z,96758.97
2023-01-29T11:20:26.659Z,96753.66
2023-01-29T11:21:29.665Z,96751.16
2023-01-29T11:22:31.461Z,96756.16
2023-01-29T11:23:33.822Z,96749.88
2023-01-29T11:24:35.470Z,96734.91
2023-01-29T11:25:37.054Z,96738.81
2023-01-29T11:26:40.866Z,96739.63
2023-01-29T11:27:50.145Z,96739.63
2023-01-29T11:28:51.840Z,96738.66
2023-01-29T11:29:54.135Z,96732.69
2023-01-29T11:30:55.915Z,96741.91
2023-01-29T11:31:59.241Z,96738.97
2023-01-29T11:33:23.857Z,96734.81
2023-01-29T11:34:27.661Z,96729.16
2023-01-29T11:35:30.646Z,96722.66
2023-01-29T11:36:39.237Z,96721.28
2023-01-29T11:37:42.901Z,96726.88
2023-01-29T11:38:44.485Z,96724.44
2023-01-29T11:39:47.297Z,96720.78
2023-01-29T11:40:48.943Z,96715.41
2023-01-29T11:41:57.939Z,96717.59
2023-01-29T11:43:12.811Z,96715.25
2023-01-29T11:44:19.477Z,96714.09
2023-01-29T11:45:29.969Z,96715.72
2023-01-29T11:46:32.266Z,96723.81
2023-01-29T11:47:33.889Z,96715.16
2023-01-29T11:48:59.414Z,96716.63
2023-01-29T11:50:17.824Z,96725.41
2023-01-29T11:51:27.544Z,96720.13
2023-01-29T11:52:37.024Z,96722.81
2023-01-29T11:53:46.290Z,96717.69
2023-01-29T11:55:10.941Z,96719.00
2023-01-29T11:56:17.202Z,96723.31
2023-01-29T11:57:26.413Z,96713.94
2023-01-29T11:58:30.267Z,96718.25
2023-01-29T11:59:48.532Z,96722.41
2023-01-29T12:00:51.721Z,96720.69
2023-01-29T12:01:54.222Z,96708.00
2023-01-29T12:02:59.280Z,96710.41
2023-01-29T12:04:01.441Z,96717.72
2023-01-29T12:05:15.579Z,96719.06
2023-01-29T12:06:24.997Z,96723.63
2023-01-29T12:07:26.735Z,96717.94
2023-01-29T12:08:38.420Z,96716.88
2023-01-29T12:09:40.433Z,96722.16
2023-01-29T12:10:43.139Z,96718.75
2023-01-29T12:11:44.658Z,96722.56
2023-01-29T12:12:46.290Z,96719.06
2023-01-29T12:13:54.287Z,96723.22
2023-01-29T12:15:08.789Z,96717.38
2023-01-29T12:16:19.306Z,96722.41
2023-01-29T12:17:26.281Z,96717.78
2023-01-29T12:18:40.526Z,96708.22
2023-01-29T12:19:51.194Z,96704.97
2023-01-29T12:21:02.623Z,96700.22
2023-01-29T12:22:17.561Z,96704.63
2023-01-29T12:23:22.184Z,96704.97
2023-01-29T12:24:46.327Z,96701.94
2023-01-29T12:25:58.941Z,96698.63
2023-01-29T12:27:06.576Z,96697.31
2023-01-29T12:28:19.219Z,96695.94
2023-01-29T12:29:58.217Z,96697.00
2023-01-29T12:31:20.922Z,96694.09
2023-01-29T12:32:43.696Z,96687.22
2023-01-29T12:34:15.555Z,96687.19
2023-01-29T12:35:17.170Z,96690.53
2023-01-29T12:36:25.161Z,96682.03
2023-01-29T12:37:45.952Z,96680.38
2023-01-29T12:38:47.889Z,96668.97
2023-01-29T12:39:50.087Z,96668.56
2023-01-29T12:41:07.335Z,96666.47
2023-01-29T12:42:16.963Z,96667.66
2023-01-29T12:43:30.062Z,96655.44
2023-01-29T12:44:51.927Z,96658.38
2023-01-29T12:45:55.468Z,96647.25
2023-01-29T12:46:59.688Z,96650.09
2023-01-29T12:48:06.790Z,96644.00
2023-01-29T12:49:18.422Z,96648.09
2023-01-29T12:50:24.580Z,96647.44
2023-01-29T12:51:31.549Z,96656.56
2023-01-29T12:52:38.458Z,96648.50
2023-01-29T12:53:57.761Z,96652.53
2023-01-29T12:55:03.682Z,96640.50
2023-01-29T12:56:12.872Z,96636.94
2023-01-29T12:57:24.502Z,96638.97
2023-01-29T12:58:38.463Z,96630.72
2023-01-29T12:59:44.249Z,96638.34
2023-01-29T13:00:48.709Z,96629.63
2023-01-29T13:01:53.882Z,96632.97
2023-01-29T13:02:57.041Z,96628.41
2023-01-29T13:04:07.388Z,96636.31
2023-01-29T13:05:20.094Z,96638.72
2023-01-29T13:06:27.721Z,96638.53
2023-01-29T13:07:33.532Z,96633.09
2023-01-29T13:08:49.571Z,96626.56
2023-01-29T13:09:54.472Z,96637.06